sensor_id;sensor_type;location;lat;lon;timestamp;temperature;humidity
69009;SHT31;56065;52.472;13.380;2023-04-15T00:01:18;11.11;87.17
69009;SHT31;56065;52.472;13.380;2023-04-15T00:03:43;11.06;87.62
69009;SHT31;56065;52.472;13.380;2023-04-15T00:06:09;11.05;87.51
69009;SHT31;56065;52.472;13.380;2023-04-15T00:08:34;11.08;87.39
69009;SHT31;56065;52.472;13.380;2023-04-15T00:11:00;11.08;87.26
69009;SHT31;56065;52.472;13.380;2023-04-15T00:13:29;10.96;87.86
69009;SHT31;56065;52.472;13.380;2023-04-15T00:15:55;11.06;87.48
69009;SHT31;56065;52.472;13.380;2023-04-15T00:18:20;11.13;87.26
69009;SHT31;56065;52.472;13.380;2023-04-15T00:20:46;11.09;87.44
69009;SHT31;56065;52.472;13.380;2023-04-15T00:23:11;11.09;87.29
69009;SHT31;56065;52.472;13.380;2023-04-15T00:25:37;11.15;87.41
69009;SHT31;56065;52.472;13.380;2023-04-15T00:28:03;11.18;87.18
69009;SHT31;56065;52.472;13.380;2023-04-15T00:30:28;11.16;87.34
69009;SHT31;56065;52.472;13.380;2023-04-15T00:32:54;11.15;87.09
69009;SHT31;56065;52.472;13.380;2023-04-15T00:35:19;11.19;87.08
69009;SHT31;56065;52.472;13.380;2023-04-15T00:37:45;11.20;86.95
69009;SHT31;56065;52.472;13.380;2023-04-15T00:40:11;11.20;86.93
69009;SHT31;56065;52.472;13.380;2023-04-15T00:42:38;11.18;87.19
69009;SHT31;56065;52.472;13.380;2023-04-15T00:45:03;11.18;87.17
69009;SHT31;56065;52.472;13.380;2023-04-15T00:47:30;11.19;87.07
69009;SHT31;56065;52.472;13.380;2023-04-15T00:49:56;11.23;87.04
69009;SHT31;56065;52.472;13.380;2023-04-15T00:52:22;11.11;87.17
69009;SHT31;56065;52.472;13.380;2023-04-15T00:54:47;11.20;86.83
69009;SHT31;56065;52.472;13.380;2023-04-15T00:57:12;11.20;86.70
69009;SHT31;56065;52.472;13.380;2023-04-15T00:59:38;11.16;87.07
69009;SHT31;56065;52.472;13.380;2023-04-15T01:02:04;11.19;86.97
69009;SHT31;56065;52.472;13.380;2023-04-15T01:04:29;11.15;86.75
69009;SHT31;56065;52.472;13.380;2023-04-15T01:06:56;11.03;87.48
69009;SHT31;56065;52.472;13.380;2023-04-15T01:09:21;11.03;87.31
69009;SHT31;56065;52.472;13.380;2023-04-15T01:11:47;11.01;87.28
69009;SHT31;56065;52.472;13.380;2023-04-15T01:14:12;11.01;87.54
69009;SHT31;56065;52.472;13.380;2023-04-15T01:16:38;11.09;87.25
69009;SHT31;56065;52.472;13.380;2023-04-15T01:19:06;11.08;87.22
69009;SHT31;56065;52.472;13.380;2023-04-15T01:21:35;11.11;87.34
69009;SHT31;56065;52.472;13.380;2023-04-15T01:24:04;11.12;87.14
69009;SHT31;56065;52.472;13.380;2023-04-15T01:26:33;11.15;87.19
69009;SHT31;56065;52.472;13.380;2023-04-15T01:28:58;11.19;87.01
69009;SHT31;56065;52.472;13.380;2023-04-15T01:31:23;11.19;86.93
69009;SHT31;56065;52.472;13.380;2023-04-15T01:33:49;11.22;86.72
69009;SHT31;56065;52.472;13.380;2023-04-15T01:36:14;11.06;87.25
69009;SHT31;56065;52.472;13.380;2023-04-15T01:38:39;11.08;87.03
69009;SHT31;56065;52.472;13.380;2023-04-15T01:41:05;11.11;86.93
69009;SHT31;56065;52.472;13.380;2023-04-15T01:43:33;11.08;87.13
69009;SHT31;56065;52.472;13.380;2023-04-15T01:45:58;11.05;87.28
69009;SHT31;56065;52.472;13.380;2023-04-15T01:48:23;11.05;86.92
69009;SHT31;56065;52.472;13.380;2023-04-15T01:50:49;10.95;87.42
69009;SHT31;56065;52.472;13.380;2023-04-15T01:53:14;10.99;87.44
69009;SHT31;56065;52.472;13.380;2023-04-15T01:55:40;10.94;87.65
69009;SHT31;56065;52.472;13.380;2023-04-15T01:58:06;11.06;87.32
69009;SHT31;56065;52.472;13.380;2023-04-15T02:00:32;11.08;87.36
69009;SHT31;56065;52.472;13.380;2023-04-15T02:02:57;11.09;87.41
69009;SHT31;56065;52.472;13.380;2023-04-15T02:05:23;11.11;87.06
69009;SHT31;56065;52.472;13.380;2023-04-15T02:07:49;11.09;87.34
69009;SHT31;56065;52.472;13.380;2023-04-15T02:10:15;11.09;86.94
69009;SHT31;56065;52.472;13.380;2023-04-15T02:12:41;11.06;87.17
69009;SHT31;56065;52.472;13.380;2023-04-15T02:15:06;11.01;87.43
69009;SHT31;56065;52.472;13.380;2023-04-15T02:17:36;11.01;87.38
69009;SHT31;56065;52.472;13.380;2023-04-15T02:20:02;11.01;87.37
69009;SHT31;56065;52.472;13.380;2023-04-15T02:22:30;10.96;87.53
69009;SHT31;56065;52.472;13.380;2023-04-15T02:24:55;11.01;87.52
69009;SHT31;56065;52.472;13.380;2023-04-15T02:27:21;11.03;87.42
69009;SHT31;56065;52.472;13.380;2023-04-15T02:29:46;11.05;87.30
69009;SHT31;56065;52.472;13.380;2023-04-15T02:32:12;11.03;87.34
69009;SHT31;56065;52.472;13.380;2023-04-15T02:34:39;11.02;87.35
69009;SHT31;56065;52.472;13.380;2023-04-15T02:37:06;11.09;87.17
69009;SHT31;56065;52.472;13.380;2023-04-15T02:39:31;11.01;87.36
69009;SHT31;56065;52.472;13.380;2023-04-15T02:41:57;11.02;87.32
69009;SHT31;56065;52.472;13.380;2023-04-15T02:44:24;11.03;87.50
69009;SHT31;56065;52.472;13.380;2023-04-15T02:46:49;11.03;87.57
69009;SHT31;56065;52.472;13.380;2023-04-15T02:49:17;11.03;87.60
69009;SHT31;56065;52.472;13.380;2023-04-15T02:51:42;11.09;87.50
69009;SHT31;56065;52.472;13.380;2023-04-15T02:54:08;11.18;87.28
69009;SHT31;56065;52.472;13.380;2023-04-15T02:56:33;11.13;87.52
69009;SHT31;56065;52.472;13.380;2023-04-15T02:58:58;11.15;87.34
69009;SHT31;56065;52.472;13.380;2023-04-15T03:01:24;11.18;87.40
69009;SHT31;56065;52.472;13.380;2023-04-15T03:03:50;11.19;87.40
69009;SHT31;56065;52.472;13.380;2023-04-15T03:06:15;11.25;87.23
69009;SHT31;56065;52.472;13.380;2023-04-15T03:08:41;11.25;87.40
69009;SHT31;56065;52.472;13.380;2023-04-15T03:11:07;11.06;87.58
69009;SHT31;56065;52.472;13.380;2023-04-15T03:13:32;11.19;87.34
69009;SHT31;56065;52.472;13.380;2023-04-15T03:15:58;11.18;87.41
69009;SHT31;56065;52.472;13.380;2023-04-15T03:18:23;11.22;87.68
69009;SHT31;56065;52.472;13.380;2023-04-15T03:20:48;11.26;87.51
69009;SHT31;56065;52.472;13.380;2023-04-15T03:23:14;11.27;87.59
69009;SHT31;56065;52.472;13.380;2023-04-15T03:25:39;11.32;87.28
69009;SHT31;56065;52.472;13.380;2023-04-15T03:28:05;11.33;87.21
69009;SHT31;56065;52.472;13.380;2023-04-15T03:30:30;11.32;87.24
69009;SHT31;56065;52.472;13.380;2023-04-15T03:32:56;11.36;87.00
69009;SHT31;56065;52.472;13.380;2023-04-15T03:35:21;11.39;86.96
69009;SHT31;56065;52.472;13.380;2023-04-15T03:37:46;11.34;87.02
69009;SHT31;56065;52.472;13.380;2023-04-15T03:40:13;11.32;87.08
69009;SHT31;56065;52.472;13.380;2023-04-15T03:42:38;11.34;87.12
69009;SHT31;56065;52.472;13.380;2023-04-15T03:45:05;11.32;87.10
69009;SHT31;56065;52.472;13.380;2023-04-15T03:47:31;11.36;87.10
69009;SHT31;56065;52.472;13.380;2023-04-15T03:49:57;11.37;87.15
69009;SHT31;56065;52.472;13.380;2023-04-15T03:52:22;11.39;86.96
69009;SHT31;56065;52.472;13.380;2023-04-15T03:54:47;11.34;87.07
69009;SHT31;56065;52.472;13.380;2023-04-15T03:57:13;11.36;87.05
69009;SHT31;56065;52.472;13.380;2023-04-15T03:59:38;11.42;86.93
69009;SHT31;56065;52.472;13.380;2023-04-15T04:02:03;11.43;86.77
69009;SHT31;56065;52.472;13.380;2023-04-15T04:04:29;11.42;86.95
69009;SHT31;56065;52.472;13.380;2023-04-15T04:06:54;11.43;86.88
69009;SHT31;56065;52.472;13.380;2023-04-15T04:09:19;11.44;87.09
69009;SHT31;56065;52.472;13.380;2023-04-15T04:11:45;11.49;86.88
69009;SHT31;56065;52.472;13.380;2023-04-15T04:14:10;11.44;86.97
69009;SHT31;56065;52.472;13.380;2023-04-15T04:16:36;11.47;86.98
69009;SHT31;56065;52.472;13.380;2023-04-15T04:19:01;11.47;87.01
69009;SHT31;56065;52.472;13.380;2023-04-15T04:21:26;11.50;86.89
69009;SHT31;56065;52.472;13.380;2023-04-15T04:23:52;11.53;86.86
69009;SHT31;56065;52.472;13.380;2023-04-15T04:26:17;11.54;86.79
69009;SHT31;56065;52.472;13.380;2023-04-15T04:28:44;11.52;86.93
69009;SHT31;56065;52.472;13.380;2023-04-15T04:31:10;11.52;86.96
69009;SHT31;56065;52.472;13.380;2023-04-15T04:33:35;11.52;86.96
69009;SHT31;56065;52.472;13.380;2023-04-15T04:36:01;11.53;86.87
69009;SHT31;56065;52.472;13.380;2023-04-15T04:38:26;11.54;86.77
69009;SHT31;56065;52.472;13.380;2023-04-15T04:40:52;11.52;86.83
69009;SHT31;56065;52.472;13.380;2023-04-15T04:43:17;11.53;86.86
69009;SHT31;56065;52.472;13.380;2023-04-15T04:45:42;11.62;86.83
69009;SHT31;56065;52.472;13.380;2023-04-15T04:48:08;11.60;86.75
69009;SHT31;56065;52.472;13.380;2023-04-15T04:50:34;11.64;86.66
69009;SHT31;56065;52.472;13.380;2023-04-15T04:53:00;11.69;86.53
69009;SHT31;56065;52.472;13.380;2023-04-15T04:55:26;11.67;86.55
69009;SHT31;56065;52.472;13.380;2023-04-15T04:57:52;11.64;86.68
69009;SHT31;56065;52.472;13.380;2023-04-15T05:00:17;11.71;86.55
69009;SHT31;56065;52.472;13.380;2023-04-15T05:02:43;11.75;86.53
69009;SHT31;56065;52.472;13.380;2023-04-15T05:05:09;11.77;86.47
69009;SHT31;56065;52.472;13.380;2023-04-15T05:07:36;11.84;86.30
69009;SHT31;56065;52.472;13.380;2023-04-15T05:10:01;11.84;86.30
69009;SHT31;56065;52.472;13.380;2023-04-15T05:12:27;11.85;86.32
69009;SHT31;56065;52.472;13.380;2023-04-15T05:14:53;11.81;86.31
69009;SHT31;56065;52.472;13.380;2023-04-15T05:17:18;11.85;86.15
69009;SHT31;56065;52.472;13.380;2023-04-15T05:19:43;11.87;86.17
69009;SHT31;56065;52.472;13.380;2023-04-15T05:22:08;11.93;86.12
69009;SHT31;56065;52.472;13.380;2023-04-15T05:24:34;11.93;86.09
69009;SHT31;56065;52.472;13.380;2023-04-15T05:27:00;11.93;86.13
69009;SHT31;56065;52.472;13.380;2023-04-15T05:29:26;11.90;86.16
69009;SHT31;56065;52.472;13.380;2023-04-15T05:31:51;11.93;86.12
69009;SHT31;56065;52.472;13.380;2023-04-15T05:34:16;11.95;86.02
69009;SHT31;56065;52.472;13.380;2023-04-15T05:36:42;11.97;86.12
69009;SHT31;56065;52.472;13.380;2023-04-15T05:39:07;12.02;85.87
69009;SHT31;56065;52.472;13.380;2023-04-15T05:41:33;12.08;85.89
69009;SHT31;56065;52.472;13.380;2023-04-15T05:43:58;12.06;86.02
69009;SHT31;56065;52.472;13.380;2023-04-15T05:46:24;12.08;85.90
69009;SHT31;56065;52.472;13.380;2023-04-15T05:48:49;12.22;85.68
69009;SHT31;56065;52.472;13.380;2023-04-15T05:51:14;12.26;85.57
69009;SHT31;56065;52.472;13.380;2023-04-15T05:53:40;12.31;85.28
69009;SHT31;56065;52.472;13.380;2023-04-15T05:56:06;12.49;85.07
69009;SHT31;56065;52.472;13.380;2023-04-15T05:58:31;12.55;84.77
69009;SHT31;56065;52.472;13.380;2023-04-15T06:00:57;12.65;84.60
69009;SHT31;56065;52.472;13.380;2023-04-15T06:03:22;12.69;84.32
69009;SHT31;56065;52.472;13.380;2023-04-15T06:05:47;12.77;84.21
69009;SHT31;56065;52.472;13.380;2023-04-15T06:08:13;12.75;84.08
69009;SHT31;56065;52.472;13.380;2023-04-15T06:10:38;12.73;83.93
69009;SHT31;56065;52.472;13.380;2023-04-15T06:13:04;12.86;84.19
69009;SHT31;56065;52.472;13.380;2023-04-15T06:15:30;12.90;83.86
69009;SHT31;56065;52.472;13.380;2023-04-15T06:17:55;12.97;83.64
69009;SHT31;56065;52.472;13.380;2023-04-15T06:20:21;12.89;83.67
69009;SHT31;56065;52.472;13.380;2023-04-15T06:22:46;12.92;83.42
69009;SHT31;56065;52.472;13.380;2023-04-15T06:25:12;12.86;83.53
69009;SHT31;56065;52.472;13.380;2023-04-15T06:27:38;12.90;83.44
69009;SHT31;56065;52.472;13.380;2023-04-15T06:30:04;12.79;83.56
69009;SHT31;56065;52.472;13.380;2023-04-15T06:32:29;13.03;83.34
69009;SHT31;56065;52.472;13.380;2023-04-15T06:34:56;13.06;83.10
69009;SHT31;56065;52.472;13.380;2023-04-15T06:37:21;13.27;82.86
69009;SHT31;56065;52.472;13.380;2023-04-15T06:39:46;13.23;82.90
69009;SHT31;56065;52.472;13.380;2023-04-15T06:42:12;13.40;82.95
69009;SHT31;56065;52.472;13.380;2023-04-15T06:44:38;13.45;82.23
69009;SHT31;56065;52.472;13.380;2023-04-15T06:47:03;13.59;82.42
69009;SHT31;56065;52.472;13.380;2023-04-15T06:49:28;13.82;81.94
69009;SHT31;56065;52.472;13.380;2023-04-15T06:51:54;14.01;81.46
69009;SHT31;56065;52.472;13.380;2023-04-15T06:54:19;14.19;81.13
69009;SHT31;56065;52.472;13.380;2023-04-15T06:56:45;14.41;80.58
69009;SHT31;56065;52.472;13.380;2023-04-15T06:59:10;14.57;79.47
69009;SHT31;56065;52.472;13.380;2023-04-15T07:01:35;14.67;80.00
69009;SHT31;56065;52.472;13.380;2023-04-15T07:04:01;14.83;79.66
69009;SHT31;56065;52.472;13.380;2023-04-15T07:06:26;15.08;78.50
69009;SHT31;56065;52.472;13.380;2023-04-15T07:08:52;15.16;78.27
69009;SHT31;56065;52.472;13.380;2023-04-15T07:11:18;15.06;77.61
69009;SHT31;56065;52.472;13.380;2023-04-15T07:13:44;15.02;77.85
69009;SHT31;56065;52.472;13.380;2023-04-15T07:16:10;14.95;77.91
69009;SHT31;56065;52.472;13.380;2023-04-15T07:18:36;14.87;77.68
69009;SHT31;56065;52.472;13.380;2023-04-15T07:21:01;14.95;77.73
69009;SHT31;56065;52.472;13.380;2023-04-15T07:23:26;14.84;77.87
69009;SHT31;56065;52.472;13.380;2023-04-15T07:25:52;14.71;77.55
69009;SHT31;56065;52.472;13.380;2023-04-15T07:28:17;14.56;78.04
69009;SHT31;56065;52.472;13.380;2023-04-15T07:30:43;14.36;78.73
69009;SHT31;56065;52.472;13.380;2023-04-15T07:33:08;14.26;79.41
69009;SHT31;56065;52.472;13.380;2023-04-15T07:35:33;14.29;79.56
69009;SHT31;56065;52.472;13.380;2023-04-15T07:37:59;14.27;79.10
69009;SHT31;56065;52.472;13.380;2023-04-15T07:40:24;14.15;79.47
69009;SHT31;56065;52.472;13.380;2023-04-15T07:42:50;14.02;79.58
69009;SHT31;56065;52.472;13.380;2023-04-15T07:45:16;13.95;79.52
69009;SHT31;56065;52.472;13.380;2023-04-15T07:47:41;13.78;79.80
69009;SHT31;56065;52.472;13.380;2023-04-15T07:50:08;13.58;79.77
69009;SHT31;56065;52.472;13.380;2023-04-15T07:52:35;13.58;80.11
69009;SHT31;56065;52.472;13.380;2023-04-15T07:55:05;13.55;79.83
69009;SHT31;56065;52.472;13.380;2023-04-15T07:57:32;13.55;79.67
69009;SHT31;56065;52.472;13.380;2023-04-15T07:59:59;13.41;80.49
69009;SHT31;56065;52.472;13.380;2023-04-15T08:02:24;13.50;80.80
69009;SHT31;56065;52.472;13.380;2023-04-15T08:04:50;13.47;80.72
69009;SHT31;56065;52.472;13.380;2023-04-15T08:07:16;13.48;80.65
69009;SHT31;56065;52.472;13.380;2023-04-15T08:09:42;13.47;80.61
69009;SHT31;56065;52.472;13.380;2023-04-15T08:12:07;13.47;80.55
69009;SHT31;56065;52.472;13.380;2023-04-15T08:14:36;13.41;80.59
69009;SHT31;56065;52.472;13.380;2023-04-15T08:17:01;13.43;80.36
69009;SHT31;56065;52.472;13.380;2023-04-15T08:19:28;13.34;80.40
69009;SHT31;56065;52.472;13.380;2023-04-15T08:21:54;13.40;81.18
69009;SHT31;56065;52.472;13.380;2023-04-15T08:24:19;13.37;81.01
69009;SHT31;56065;52.472;13.380;2023-04-15T08:26:45;13.43;80.58
69009;SHT31;56065;52.472;13.380;2023-04-15T08:29:11;13.35;81.00
69009;SHT31;56065;52.472;13.380;2023-04-15T08:31:36;13.31;80.83
69009;SHT31;56065;52.472;13.380;2023-04-15T08:34:02;13.43;80.69
69009;SHT31;56065;52.472;13.380;2023-04-15T08:36:28;13.48;81.08
69009;SHT31;56065;52.472;13.380;2023-04-15T08:38:53;13.51;80.85
69009;SHT31;56065;52.472;13.380;2023-04-15T08:41:23;13.61;80.45
69009;SHT31;56065;52.472;13.380;2023-04-15T08:46:18;13.50;80.56
69009;SHT31;56065;52.472;13.380;2023-04-15T08:48:45;13.51;80.10
69009;SHT31;56065;52.472;13.380;2023-04-15T08:51:11;13.41;80.47
69009;SHT31;56065;52.472;13.380;2023-04-15T08:53:41;13.47;81.41
69009;SHT31;56065;52.472;13.380;2023-04-15T08:56:08;13.53;82.12
69009;SHT31;56065;52.472;13.380;2023-04-15T08:58:35;13.61;81.49
69009;SHT31;56065;52.472;13.380;2023-04-15T09:01:01;13.69;80.76
69009;SHT31;56065;52.472;13.380;2023-04-15T09:03:27;13.69;80.52
69009;SHT31;56065;52.472;13.380;2023-04-15T09:05:53;13.75;80.71
69009;SHT31;56065;52.472;13.380;2023-04-15T09:08:19;13.83;80.94
69009;SHT31;56065;52.472;13.380;2023-04-15T09:10:44;13.95;80.55
69009;SHT31;56065;52.472;13.380;2023-04-15T09:13:10;13.86;80.80
69009;SHT31;56065;52.472;13.380;2023-04-15T09:15:37;13.90;80.91
69009;SHT31;56065;52.472;13.380;2023-04-15T09:18:03;13.89;80.59
69009;SHT31;56065;52.472;13.380;2023-04-15T09:20:28;14.03;80.92
69009;SHT31;56065;52.472;13.380;2023-04-15T09:22:54;14.08;81.01
69009;SHT31;56065;52.472;13.380;2023-04-15T09:27:58;14.09;80.71
69009;SHT31;56065;52.472;13.380;2023-04-15T09:30:24;14.13;80.47
69009;SHT31;56065;52.472;13.380;2023-04-15T09:33:00;14.12;80.27
69009;SHT31;56065;52.472;13.380;2023-04-15T09:35:33;14.12;80.41
69009;SHT31;56065;52.472;13.380;2023-04-15T09:38:05;14.23;80.13
69009;SHT31;56065;52.472;13.380;2023-04-15T09:42:58;14.20;80.52
69009;SHT31;56065;52.472;13.380;2023-04-15T09:45:23;14.12;80.94
69009;SHT31;56065;52.472;13.380;2023-04-15T09:47:49;14.12;80.32
69009;SHT31;56065;52.472;13.380;2023-04-15T09:50:18;14.15;80.51
69009;SHT31;56065;52.472;13.380;2023-04-15T09:52:43;14.19;80.43
69009;SHT31;56065;52.472;13.380;2023-04-15T09:55:10;14.16;80.83
69009;SHT31;56065;52.472;13.380;2023-04-15T09:57:36;14.05;80.62
69009;SHT31;56065;52.472;13.380;2023-04-15T10:00:03;13.92;81.23
69009;SHT31;56065;52.472;13.380;2023-04-15T10:02:29;13.87;81.65
69009;SHT31;56065;52.472;13.380;2023-04-15T10:04:56;13.92;81.54
69009;SHT31;56065;52.472;13.380;2023-04-15T10:07:22;13.95;81.44
69009;SHT31;56065;52.472;13.380;2023-04-15T10:09:48;13.89;81.51
69009;SHT31;56065;52.472;13.380;2023-04-15T10:12:16;13.89;81.53
69009;SHT31;56065;52.472;13.380;2023-04-15T10:14:42;13.92;81.87
69009;SHT31;56065;52.472;13.380;2023-04-15T10:17:10;13.93;82.11
69009;SHT31;56065;52.472;13.380;2023-04-15T10:19:37;13.93;82.06
69009;SHT31;56065;52.472;13.380;2023-04-15T10:22:02;13.89;81.84
69009;SHT31;56065;52.472;13.380;2023-04-15T10:24:30;13.93;81.65
69009;SHT31;56065;52.472;13.380;2023-04-15T10:26:56;13.95;82.40
69009;SHT31;56065;52.472;13.380;2023-04-15T10:29:23;13.98;81.87
69009;SHT31;56065;52.472;13.380;2023-04-15T10:31:50;14.06;82.22
69009;SHT31;56065;52.472;13.380;2023-04-15T10:34:17;14.12;81.88
69009;SHT31;56065;52.472;13.380;2023-04-15T10:36:42;14.30;81.54
69009;SHT31;56065;52.472;13.380;2023-04-15T10:42:15;14.53;81.16
69009;SHT31;56065;52.472;13.380;2023-04-15T10:44:43;14.61;81.14
69009;SHT31;56065;52.472;13.380;2023-04-15T10:47:14;14.57;81.29
69009;SHT31;56065;52.472;13.380;2023-04-15T10:49:58;14.56;81.31
69009;SHT31;56065;52.472;13.380;2023-04-15T10:52:26;14.56;81.17
69009;SHT31;56065;52.472;13.380;2023-04-15T10:57:51;14.54;81.15
69009;SHT31;56065;52.472;13.380;2023-04-15T11:00:18;14.54;81.51
69009;SHT31;56065;52.472;13.380;2023-04-15T11:02:57;14.54;81.62
69009;SHT31;56065;52.472;13.380;2023-04-15T11:08:04;14.48;81.17
69009;SHT31;56065;52.472;13.380;2023-04-15T11:13:14;14.26;81.28
69009;SHT31;56065;52.472;13.380;2023-04-15T11:15:42;14.29;81.73
69009;SHT31;56065;52.472;13.380;2023-04-15T11:18:13;14.16;81.95
69009;SHT31;56065;52.472;13.380;2023-04-15T11:20:40;14.15;81.69
69009;SHT31;56065;52.472;13.380;2023-04-15T11:23:07;14.03;82.42
69009;SHT31;56065;52.472;13.380;2023-04-15T11:25:34;14.03;82.16
69009;SHT31;56065;52.472;13.380;2023-04-15T11:28:00;14.01;81.96
69009;SHT31;56065;52.472;13.380;2023-04-15T11:30:28;13.93;82.74
69009;SHT31;56065;52.472;13.380;2023-04-15T11:32:57;13.93;82.36
69009;SHT31;56065;52.472;13.380;2023-04-15T11:35:23;13.87;82.58
69009;SHT31;56065;52.472;13.380;2023-04-15T11:37:49;13.92;82.75
69009;SHT31;56065;52.472;13.380;2023-04-15T11:40:15;13.95;82.99
69009;SHT31;56065;52.472;13.380;2023-04-15T11:42:43;13.95;83.08
69009;SHT31;56065;52.472;13.380;2023-04-15T11:45:13;14.01;82.83
69009;SHT31;56065;52.472;13.380;2023-04-15T11:47:40;13.99;83.03
69009;SHT31;56065;52.472;13.380;2023-04-15T11:50:20;14.01;83.00
69009;SHT31;56065;52.472;13.380;2023-04-15T11:52:55;14.01;82.88
69009;SHT31;56065;52.472;13.380;2023-04-15T11:55:24;14.01;82.46
69009;SHT31;56065;52.472;13.380;2023-04-15T12:00:39;14.09;83.26
69009;SHT31;56065;52.472;13.380;2023-04-15T12:08:56;14.15;82.82
69009;SHT31;56065;52.472;13.380;2023-04-15T12:14:17;14.24;82.85
69009;SHT31;56065;52.472;13.380;2023-04-15T12:16:47;14.20;82.67
69009;SHT31;56065;52.472;13.380;2023-04-15T12:19:25;14.40;82.73
69009;SHT31;56065;52.472;13.380;2023-04-15T12:22:02;14.60;83.06
69009;SHT31;56065;52.472;13.380;2023-04-15T12:24:32;14.59;82.42
69009;SHT31;56065;52.472;13.380;2023-04-15T12:27:07;14.74;82.56
69009;SHT31;56065;52.472;13.380;2023-04-15T12:29:35;14.88;82.25
69009;SHT31;56065;52.472;13.380;2023-04-15T12:32:06;14.98;82.18
69009;SHT31;56065;52.472;13.380;2023-04-15T12:34:34;15.06;81.86
69009;SHT31;56065;52.472;13.380;2023-04-15T12:37:01;15.26;81.47
69009;SHT31;56065;52.472;13.380;2023-04-15T12:39:29;15.36;81.43
69009;SHT31;56065;52.472;13.380;2023-04-15T12:41:55;15.46;81.09
69009;SHT31;56065;52.472;13.380;2023-04-15T12:44:23;15.59;81.17
69009;SHT31;56065;52.472;13.380;2023-04-15T12:46:50;15.60;81.01
69009;SHT31;56065;52.472;13.380;2023-04-15T12:49:16;15.63;80.81
69009;SHT31;56065;52.472;13.380;2023-04-15T12:51:45;15.53;80.26
69009;SHT31;56065;52.472;13.380;2023-04-15T12:54:11;15.50;80.22
69009;SHT31;56065;52.472;13.380;2023-04-15T12:56:36;15.55;80.01
69009;SHT31;56065;52.472;13.380;2023-04-15T12:59:01;15.49;80.67
69009;SHT31;56065;52.472;13.380;2023-04-15T13:01:27;15.55;80.58
69009;SHT31;56065;52.472;13.380;2023-04-15T13:03:52;15.57;80.19
69009;SHT31;56065;52.472;13.380;2023-04-15T13:06:18;15.60;80.45
69009;SHT31;56065;52.472;13.380;2023-04-15T13:08:43;15.63;80.45
69009;SHT31;56065;52.472;13.380;2023-04-15T13:11:09;15.62;80.03
69009;SHT31;56065;52.472;13.380;2023-04-15T13:13:34;15.60;80.17
69009;SHT31;56065;52.472;13.380;2023-04-15T13:16:00;15.57;80.14
69009;SHT31;56065;52.472;13.380;2023-04-15T13:18:25;15.56;80.11
69009;SHT31;56065;52.472;13.380;2023-04-15T13:20:51;15.53;80.23
69009;SHT31;56065;52.472;13.380;2023-04-15T13:23:16;15.46;80.62
69009;SHT31;56065;52.472;13.380;2023-04-15T13:25:41;15.43;80.44
69009;SHT31;56065;52.472;13.380;2023-04-15T13:28:07;15.49;80.46
69009;SHT31;56065;52.472;13.380;2023-04-15T13:30:32;15.50;80.49
69009;SHT31;56065;52.472;13.380;2023-04-15T13:32:58;15.56;80.50
69009;SHT31;56065;52.472;13.380;2023-04-15T13:35:23;15.53;80.24
69009;SHT31;56065;52.472;13.380;2023-04-15T13:37:48;15.42;80.44
69009;SHT31;56065;52.472;13.380;2023-04-15T13:40:14;15.36;80.77
69009;SHT31;56065;52.472;13.380;2023-04-15T13:42:41;15.35;81.07
69009;SHT31;56065;52.472;13.380;2023-04-15T13:45:07;15.45;80.99
69009;SHT31;56065;52.472;13.380;2023-04-15T13:47:32;15.55;80.77
69009;SHT31;56065;52.472;13.380;2023-04-15T13:49:58;15.57;80.75
69009;SHT31;56065;52.472;13.380;2023-04-15T13:52:23;15.53;80.52
69009;SHT31;56065;52.472;13.380;2023-04-15T13:54:49;15.47;81.04
69009;SHT31;56065;52.472;13.380;2023-04-15T13:57:14;15.39;80.50
69009;SHT31;56065;52.472;13.380;2023-04-15T13:59:40;15.40;80.40
69009;SHT31;56065;52.472;13.380;2023-04-15T14:02:05;15.31;80.67
69009;SHT31;56065;52.472;13.380;2023-04-15T14:04:31;15.24;80.85
69009;SHT31;56065;52.472;13.380;2023-04-15T14:06:56;15.21;80.80
69009;SHT31;56065;52.472;13.380;2023-04-15T14:09:22;15.01;81.44
69009;SHT31;56065;52.472;13.380;2023-04-15T14:11:51;14.96;81.02
69009;SHT31;56065;52.472;13.380;2023-04-15T14:14:16;14.92;81.37
69009;SHT31;56065;52.472;13.380;2023-04-15T14:16:42;14.75;81.97
69009;SHT31;56065;52.472;13.380;2023-04-15T14:19:07;14.70;81.81
69009;SHT31;56065;52.472;13.380;2023-04-15T14:21:32;14.67;82.02
69009;SHT31;56065;52.472;13.380;2023-04-15T14:23:58;14.59;82.23
69009;SHT31;56065;52.472;13.380;2023-04-15T14:26:23;14.46;82.55
69009;SHT31;56065;52.472;13.380;2023-04-15T14:28:49;14.47;82.55
69009;SHT31;56065;52.472;13.380;2023-04-15T14:31:15;14.33;82.90
69009;SHT31;56065;52.472;13.380;2023-04-15T14:33:40;14.33;82.83
69009;SHT31;56065;52.472;13.380;2023-04-15T14:36:07;14.24;82.91
69009;SHT31;56065;52.472;13.380;2023-04-15T14:38:33;14.32;82.98
69009;SHT31;56065;52.472;13.380;2023-04-15T14:41:03;14.33;83.00
69009;SHT31;56065;52.472;13.380;2023-04-15T14:43:28;14.40;83.02
69009;SHT31;56065;52.472;13.380;2023-04-15T14:45:54;14.48;83.18
69009;SHT31;56065;52.472;13.380;2023-04-15T14:48:19;14.57;83.32
69009;SHT31;56065;52.472;13.380;2023-04-15T14:50:45;14.61;82.99
69009;SHT31;56065;52.472;13.380;2023-04-15T14:53:10;14.70;82.95
69009;SHT31;56065;52.472;13.380;2023-04-15T14:55:35;14.75;82.74
69009;SHT31;56065;52.472;13.380;2023-04-15T14:58:01;14.75;82.58
69009;SHT31;56065;52.472;13.380;2023-04-15T15:00:26;14.70;82.65
69009;SHT31;56065;52.472;13.380;2023-04-15T15:02:52;14.65;82.82
69009;SHT31;56065;52.472;13.380;2023-04-15T15:05:17;14.59;82.94
69009;SHT31;56065;52.472;13.380;2023-04-15T15:07:43;14.54;82.83
69009;SHT31;56065;52.472;13.380;2023-04-15T15:10:08;14.48;83.04
69009;SHT31;56065;52.472;13.380;2023-04-15T15:12:33;14.46;83.10
69009;SHT31;56065;52.472;13.380;2023-04-15T15:14:59;14.37;83.19
69009;SHT31;56065;52.472;13.380;2023-04-15T15:17:24;14.29;83.15
69009;SHT31;56065;52.472;13.380;2023-04-15T15:19:50;14.24;83.11
69009;SHT31;56065;52.472;13.380;2023-04-15T15:22:16;14.22;83.21
69009;SHT31;56065;52.472;13.380;2023-04-15T15:24:41;14.20;83.42
69009;SHT31;56065;52.472;13.380;2023-04-15T15:27:06;14.17;83.69
69009;SHT31;56065;52.472;13.380;2023-04-15T15:29:32;14.23;83.56
69009;SHT31;56065;52.472;13.380;2023-04-15T15:31:57;14.23;83.72
69009;SHT31;56065;52.472;13.380;2023-04-15T15:34:23;14.22;83.48
69009;SHT31;56065;52.472;13.380;2023-04-15T15:36:48;14.19;83.73
69009;SHT31;56065;52.472;13.380;2023-04-15T15:39:13;14.15;83.63